Terminal Aerodrome Forecast
Issued by NWS

Home | Current Version | Previous Version | Text Only | Print | Product List | Glossary On
Versions: 1 2 3 4 5 6 7 8 9 10 11 12 13
000
FTUS44 KBMX 141100
TAFEET
TAF
KEET 141134Z 1412/1512 21004KT P6SM SCT120
      TEMPO 1412/1413 4SM BR
     FM141700 22007KT P6SM SCT050
     FM150200 20008KT P6SM VCTS BKN050CB
      TEMPO 1505/1508 3SM TSRA BR BKN050CB=

USA.gov is the U.S. government's official web portal to all federal, state and local government web resources and services.